createdAt,value
2023-04-02T00:00:11.310Z,17.40
2023-04-02T00:05:56.795Z,16.55
2023-04-02T00:08:30.327Z,19.10
2023-04-02T00:11:01.415Z,12.20
2023-04-02T00:13:44.738Z,16.67
2023-04-02T00:16:18.530Z,25.20
2023-04-02T00:18:51.000Z,17.00
2023-04-02T00:21:27.898Z,21.27
2023-04-02T00:23:57.454Z,17.92
2023-04-02T00:26:43.248Z,22.55
2023-04-02T00:29:12.989Z,17.13
2023-04-02T00:31:51.270Z,15.85
2023-04-02T00:34:28.044Z,13.98
2023-04-02T00:36:56.621Z,16.75
2023-04-02T00:39:32.061Z,15.27
2023-04-02T00:42:06.265Z,14.73
2023-04-02T00:44:43.401Z,15.07
2023-04-02T00:47:37.596Z,11.85
2023-04-02T00:50:09.866Z,15.98
2023-04-02T00:52:43.215Z,12.68
2023-04-02T00:55:23.405Z,11.20
2023-04-02T00:57:52.694Z,13.73
2023-04-02T01:00:31.216Z,10.27
2023-04-02T01:03:18.190Z,10.10
2023-04-02T01:05:57.848Z,12.95
2023-04-02T01:08:52.992Z,11.63
2023-04-02T01:11:29.560Z,10.60
2023-04-02T01:14:19.369Z,10.55
2023-04-02T01:16:55.666Z,10.23
2023-04-02T01:19:27.910Z,13.90
2023-04-02T01:21:59.969Z,10.80
2023-04-02T01:24:33.565Z,10.15
2023-04-02T01:27:22.984Z,10.80
2023-04-02T01:29:57.747Z,12.23
2023-04-02T01:32:29.253Z,8.65
2023-04-02T01:34:58.772Z,9.15
2023-04-02T01:37:38.690Z,8.48
2023-04-02T01:40:33.226Z,8.57
2023-04-02T01:43:10.057Z,10.90
2023-04-02T01:45:38.626Z,9.05
2023-04-02T01:48:30.102Z,8.88
2023-04-02T01:51:00.818Z,12.65
2023-04-02T01:53:31.175Z,9.13
2023-04-02T01:56:02.058Z,9.55
2023-04-02T01:58:32.001Z,9.95
2023-04-02T02:01:22.267Z,11.63
2023-04-02T02:03:53.818Z,10.48
2023-04-02T02:06:23.475Z,9.90
2023-04-02T02:09:04.118Z,9.75
2023-04-02T02:11:33.934Z,9.23
2023-04-02T02:14:06.812Z,8.95
2023-04-02T02:16:42.164Z,11.88
2023-04-02T02:19:25.223Z,9.70
2023-04-02T02:24:27.599Z,13.48
2023-04-02T02:27:16.604Z,15.20
2023-04-02T02:29:46.150Z,11.95
2023-04-02T02:32:15.150Z,13.23
2023-04-02T02:34:55.501Z,15.90
2023-04-02T02:37:30.042Z,14.30
2023-04-02T02:40:05.661Z,15.20
2023-04-02T02:42:47.272Z,16.95
2023-04-02T02:45:21.680Z,16.88
2023-04-02T02:47:51.517Z,18.33
2023-04-02T02:50:23.123Z,17.17
2023-04-02T02:52:54.985Z,21.57
2023-04-02T02:55:29.283Z,18.17
2023-04-02T03:00:56.541Z,19.38
2023-04-02T03:03:28.509Z,22.67
2023-04-02T03:06:06.529Z,22.33
2023-04-02T03:08:40.555Z,21.30
2023-04-02T03:11:19.885Z,22.52
2023-04-02T03:13:50.373Z,25.88
2023-04-02T03:16:29.926Z,21.25
2023-04-02T03:19:06.308Z,26.58
2023-04-02T03:21:48.936Z,24.60
2023-04-02T03:24:48.202Z,31.08
2023-04-02T03:27:21.655Z,28.63
2023-04-02T03:30:27.629Z,28.67
2023-04-02T03:33:14.249Z,28.27
2023-04-02T03:36:06.510Z,27.33
2023-04-02T03:41:22.849Z,23.98
2023-04-02T03:43:54.700Z,28.92
2023-04-02T03:46:32.170Z,26.40
2023-04-02T03:49:08.518Z,27.50
2023-04-02T03:51:46.254Z,27.52
2023-04-02T03:54:16.703Z,23.75
2023-04-02T03:56:47.749Z,23.92
2023-04-02T03:59:37.689Z,27.90
2023-04-02T04:02:34.191Z,27.50
2023-04-02T04:05:03.987Z,23.95
2023-04-02T04:07:36.629Z,27.33
2023-04-02T04:10:05.920Z,32.83
2023-04-02T04:12:41.464Z,23.80
2023-04-02T04:15:31.803Z,25.83
2023-04-02T04:18:35.054Z,25.90
2023-04-02T04:21:31.407Z,25.55
2023-04-02T04:24:22.560Z,26.40
2023-04-02T04:26:57.786Z,26.23
2023-04-02T04:29:32.129Z,27.25
2023-04-02T04:32:52.225Z,23.67
2023-04-02T04:35:31.596Z,24.95
2023-04-02T04:38:15.993Z,25.48
2023-04-02T04:40:54.366Z,29.08
2023-04-02T04:43:45.919Z,32.30
2023-04-02T04:46:17.703Z,33.38
2023-04-02T04:49:23.399Z,37.20
2023-04-02T04:52:10.178Z,36.03
2023-04-02T04:54:39.921Z,32.88
2023-04-02T04:57:32.331Z,37.03
2023-04-02T05:00:11.300Z,31.35
2023-04-02T05:02:48.857Z,30.38
2023-04-02T05:05:29.445Z,31.30
2023-04-02T05:08:12.248Z,33.67
2023-04-02T05:10:48.589Z,37.97
2023-04-02T05:13:41.963Z,35.42
2023-04-02T05:16:44.885Z,39.72
2023-04-02T05:19:44.080Z,36.42
2023-04-02T05:22:26.458Z,37.38
2023-04-02T05:25:24.716Z,39.53
2023-04-02T05:28:18.978Z,37.95
2023-04-02T05:30:53.176Z,33.30
2023-04-02T05:33:27.176Z,29.83
2023-04-02T05:36:09.550Z,29.65
2023-04-02T05:38:47.806Z,31.48
2023-04-02T05:41:38.560Z,27.55
2023-04-02T05:44:12.956Z,29.75
2023-04-02T05:46:48.815Z,30.48
2023-04-02T05:49:50.083Z,30.80
2023-04-02T05:52:33.223Z,29.02
2023-04-02T05:55:13.762Z,26.42
2023-04-02T05:58:10.477Z,28.75
2023-04-02T06:00:40.200Z,27.75
2023-04-02T06:04:04.005Z,24.38
2023-04-02T06:06:41.633Z,18.35
2023-04-02T06:09:26.901Z,20.33
2023-04-02T06:12:24.125Z,18.90
2023-04-02T06:14:53.352Z,16.95
2023-04-02T06:17:23.615Z,17.58
2023-04-02T06:19:52.552Z,22.83
2023-04-02T06:22:33.664Z,16.30
2023-04-02T06:25:25.474Z,19.02
2023-04-02T06:27:56.091Z,21.25
2023-04-02T06:30:28.585Z,19.85
2023-04-02T06:32:57.859Z,17.43
2023-04-02T06:35:28.154Z,20.15
2023-04-02T06:38:04.649Z,21.67
2023-04-02T06:40:51.269Z,22.70
2023-04-02T06:43:47.858Z,19.15
2023-04-02T06:46:31.606Z,19.10
2023-04-02T06:49:23.376Z,22.20
2023-04-02T06:51:57.236Z,25.15
2023-04-02T06:54:26.989Z,21.55
2023-04-02T06:59:34.518Z,20.58
2023-04-02T07:02:33.476Z,21.73
2023-04-02T07:05:06.243Z,18.67
2023-04-02T07:07:37.463Z,19.33
2023-04-02T07:10:09.374Z,24.50
2023-04-02T07:12:37.858Z,24.30
2023-04-02T07:15:06.869Z,20.48
2023-04-02T07:17:35.668Z,22.35
2023-04-02T07:20:03.686Z,20.90
2023-04-02T07:22:31.720Z,21.58
2023-04-02T07:25:02.441Z,21.23
2023-04-02T07:27:31.253Z,20.10
2023-04-02T07:29:59.009Z,20.63
2023-04-02T07:32:27.121Z,21.90
2023-04-02T07:34:55.506Z,20.45
2023-04-02T07:37:23.511Z,22.15
2023-04-02T07:39:51.212Z,19.85
2023-04-02T07:42:19.577Z,21.83
2023-04-02T07:44:47.471Z,24.20
2023-04-02T07:47:16.170Z,22.13
2023-04-02T07:49:43.954Z,20.60
2023-04-02T07:52:12.784Z,25.75
2023-04-02T07:54:40.595Z,21.75
2023-04-02T07:57:08.922Z,18.58
2023-04-02T07:59:37.600Z,21.02
2023-04-02T08:02:06.388Z,19.55
2023-04-02T08:04:34.269Z,22.40
2023-04-02T08:07:02.783Z,18.67
2023-04-02T08:09:30.874Z,20.33
2023-04-02T08:11:59.205Z,18.25
2023-04-02T08:14:26.971Z,20.70
2023-04-02T08:16:56.330Z,21.58
2023-04-02T08:19:24.651Z,21.60
2023-04-02T08:21:53.150Z,17.30
2023-04-02T08:24:21.907Z,19.08
2023-04-02T08:26:51.795Z,19.33
2023-04-02T08:29:20.641Z,17.67
2023-04-02T08:31:49.056Z,15.52
2023-04-02T08:34:17.138Z,21.83
2023-04-02T08:36:46.422Z,17.40
2023-04-02T08:39:14.280Z,15.75
2023-04-02T08:41:48.088Z,18.55
2023-04-02T08:44:53.354Z,19.23
2023-04-02T08:47:26.255Z,18.95
2023-04-02T08:49:59.459Z,15.05
2023-04-02T08:52:29.802Z,15.88
2023-04-02T08:54:58.259Z,23.73
2023-04-02T08:57:32.874Z,19.05
2023-04-02T09:00:21.372Z,16.02
2023-04-02T09:02:57.087Z,15.50
2023-04-02T09:05:32.328Z,12.75
2023-04-02T09:08:05.215Z,16.63
2023-04-02T09:10:46.422Z,15.60
2023-04-02T09:13:22.178Z,11.82
2023-04-02T09:15:51.131Z,11.45
2023-04-02T09:18:19.879Z,11.85
2023-04-02T09:20:49.581Z,11.50
2023-04-02T09:23:22.018Z,10.45
2023-04-02T09:26:03.383Z,12.05
2023-04-02T09:28:32.527Z,11.77
2023-04-02T09:31:19.821Z,10.65
2023-04-02T09:33:50.457Z,8.77
2023-04-02T09:36:27.853Z,8.43
2023-04-02T09:39:01.680Z,7.65
2023-04-02T09:41:31.402Z,11.38
2023-04-02T09:44:14.487Z,8.25
2023-04-02T09:46:49.830Z,6.80
2023-04-02T09:49:18.621Z,11.57
2023-04-02T09:51:46.648Z,11.77
2023-04-02T09:54:16.631Z,11.23
2023-04-02T09:57:04.760Z,25.05
2023-04-02T09:59:33.429Z,11.63
2023-04-02T10:02:06.026Z,11.85
2023-04-02T10:04:48.781Z,10.88
2023-04-02T10:07:42.093Z,9.30
2023-04-02T10:13:02.099Z,12.43
2023-04-02T10:15:44.880Z,11.38
2023-04-02T10:18:17.614Z,10.65
2023-04-02T10:20:51.347Z,13.38
2023-04-02T10:25:58.201Z,12.80
2023-04-02T10:28:34.724Z,8.48
2023-04-02T10:31:25.858Z,10.27
2023-04-02T10:34:05.466Z,11.63
2023-04-02T10:36:50.893Z,13.82
2023-04-02T10:39:39.240Z,15.50
2023-04-02T10:42:22.678Z,9.90
2023-04-02T10:45:01.284Z,14.15
2023-04-02T10:47:47.982Z,14.73
2023-04-02T10:50:40.325Z,13.20
2023-04-02T10:53:24.204Z,16.88
2023-04-02T10:55:58.625Z,17.60
2023-04-02T10:58:32.330Z,16.58
2023-04-02T11:01:08.776Z,19.80
2023-04-02T11:03:45.203Z,19.95
2023-04-02T11:06:32.993Z,21.02
2023-04-02T11:09:05.392Z,22.80
2023-04-02T11:11:37.082Z,21.67
2023-04-02T11:14:05.180Z,21.07
2023-04-02T11:16:34.640Z,17.52
2023-04-02T11:19:26.370Z,19.83
2023-04-02T11:22:01.465Z,17.83
2023-04-02T11:24:34.328Z,16.08
2023-04-02T11:27:16.746Z,20.77
2023-04-02T11:30:08.304Z,17.25
2023-04-02T11:32:45.725Z,17.55
2023-04-02T11:35:32.460Z,14.70
2023-04-02T11:38:24.663Z,16.02
2023-04-02T11:40:57.749Z,16.42
2023-04-02T11:43:34.707Z,17.92
2023-04-02T11:46:40.344Z,17.33
2023-04-02T11:49:33.470Z,16.77
2023-04-02T11:54:41.658Z,16.42
2023-04-02T11:57:32.569Z,18.38
2023-04-02T12:00:19.810Z,21.83
2023-04-02T12:03:03.751Z,21.30
2023-04-02T12:05:48.384Z,20.25
2023-04-02T12:08:56.671Z,19.25
2023-04-02T12:11:39.940Z,20.10
2023-04-02T12:14:31.441Z,19.58
2023-04-02T12:17:00.236Z,17.20
2023-04-02T12:19:31.174Z,19.60
2023-04-02T12:21:59.841Z,14.63
2023-04-02T12:24:32.353Z,14.30
2023-04-02T12:27:15.885Z,13.82
2023-04-02T12:29:44.431Z,11.55
2023-04-02T12:32:30.839Z,13.35
2023-04-02T12:35:01.693Z,16.13
2023-04-02T12:37:30.287Z,12.38
2023-04-02T12:40:06.078Z,12.63
2023-04-02T12:42:36.433Z,13.20
2023-04-02T12:45:07.333Z,10.73
2023-04-02T12:47:35.258Z,10.48
2023-04-02T12:50:05.266Z,12.40
2023-04-02T12:52:33.503Z,10.25
2023-04-02T12:55:04.096Z,12.45
2023-04-02T12:57:35.054Z,11.85
2023-04-02T13:00:22.235Z,10.52
2023-04-02T13:02:52.961Z,12.55
2023-04-02T13:05:43.100Z,11.90
2023-04-02T13:08:18.683Z,11.43
2023-04-02T13:10:47.009Z,9.85
2023-04-02T13:13:18.244Z,12.40
2023-04-02T13:15:46.421Z,13.73
2023-04-02T13:18:14.270Z,13.57
2023-04-02T13:20:44.176Z,12.27
2023-04-02T13:23:30.626Z,12.65
2023-04-02T13:26:30.338Z,8.40
2023-04-02T13:29:00.576Z,15.35
2023-04-02T13:31:33.625Z,15.98
2023-04-02T13:34:01.924Z,12.68
2023-04-02T13:36:30.660Z,14.05
2023-04-02T13:38:58.539Z,15.20
2023-04-02T13:41:29.338Z,9.68
2023-04-02T13:44:02.329Z,16.88
2023-04-02T13:46:32.697Z,16.63
2023-04-02T13:49:00.537Z,16.23
2023-04-02T13:51:40.985Z,17.05
2023-04-02T13:54:47.240Z,13.27
2023-04-02T13:57:16.292Z,10.30
2023-04-02T13:59:43.880Z,12.20
2023-04-02T14:02:18.379Z,16.35
2023-04-02T14:04:56.784Z,16.70
2023-04-02T14:07:56.803Z,13.27
2023-04-02T14:10:56.352Z,11.73
2023-04-02T14:13:51.812Z,8.05
2023-04-02T14:16:28.197Z,13.57
2023-04-02T14:19:05.588Z,11.77
2023-04-02T14:21:46.263Z,13.50
2023-04-02T14:24:36.137Z,15.45
2023-04-02T14:27:41.291Z,16.38
2023-04-02T14:30:30.738Z,14.05
2023-04-02T14:33:25.246Z,16.25
2023-04-02T14:36:10.833Z,14.18
2023-04-02T14:38:58.354Z,17.38
2023-04-02T14:42:08.402Z,17.83
2023-04-02T14:44:50.608Z,20.25
2023-04-02T14:47:23.719Z,15.93
2023-04-02T14:49:57.475Z,11.90
2023-04-02T14:52:27.769Z,16.73
2023-04-02T14:55:07.458Z,15.98
2023-04-02T14:57:39.747Z,13.10
2023-04-02T15:00:47.197Z,14.50
2023-04-02T15:03:46.499Z,9.20
2023-04-02T15:06:43.820Z,17.17
2023-04-02T15:09:32.760Z,15.88
2023-04-02T15:12:21.749Z,21.33
2023-04-02T15:14:55.842Z,21.17
2023-04-02T15:17:25.152Z,18.25
2023-04-02T15:20:02.872Z,17.50
2023-04-02T15:22:39.798Z,17.55
2023-04-02T15:25:20.921Z,18.20
2023-04-02T15:28:21.033Z,18.23
2023-04-02T15:30:53.962Z,16.50
2023-04-02T15:33:40.250Z,18.15
2023-04-02T15:36:37.463Z,18.55
2023-04-02T15:39:42.741Z,18.92
2023-04-02T15:42:31.468Z,15.98
2023-04-02T15:45:09.634Z,17.73
2023-04-02T15:47:49.348Z,17.95
2023-04-02T15:50:23.390Z,14.68
2023-04-02T15:53:11.005Z,14.50
2023-04-02T15:55:44.600Z,17.60
2023-04-02T15:58:36.588Z,15.30
2023-04-02T16:01:26.335Z,17.15
2023-04-02T16:04:02.498Z,14.85
2023-04-02T16:06:39.503Z,17.17
2023-04-02T16:09:27.856Z,21.08
2023-04-02T16:12:10.307Z,22.45
2023-04-02T16:14:39.675Z,14.52
2023-04-02T16:17:24.497Z,16.15
2023-04-02T16:19:57.207Z,20.42
2023-04-02T16:22:29.420Z,20.67
2023-04-02T16:25:23.368Z,20.58
2023-04-02T16:31:08.809Z,16.27
2023-04-02T16:33:59.970Z,14.48
2023-04-02T16:36:41.203Z,17.10
2023-04-02T16:39:37.507Z,16.92
2023-04-02T16:42:05.992Z,17.20
2023-04-02T16:44:52.459Z,20.40
2023-04-02T16:47:46.842Z,18.67
2023-04-02T16:50:38.587Z,19.45
2023-04-02T16:53:36.748Z,21.60
2023-04-02T16:56:17.205Z,18.50
2023-04-02T16:59:04.063Z,22.05
2023-04-02T17:01:44.231Z,22.75
2023-04-02T17:04:38.695Z,28.08
2023-04-02T17:07:12.968Z,30.35
2023-04-02T17:10:02.060Z,34.00
2023-04-02T17:12:33.378Z,22.70
2023-04-02T17:15:14.189Z,22.38
2023-04-02T17:17:56.632Z,28.77
2023-04-02T17:20:26.263Z,23.02
2023-04-02T17:22:55.204Z,22.27
2023-04-02T17:25:31.257Z,20.35
2023-04-02T17:27:59.868Z,20.45
2023-04-02T17:30:47.613Z,25.02
2023-04-02T17:33:17.492Z,19.73
2023-04-02T17:36:08.804Z,21.05
2023-04-02T17:39:15.717Z,22.30
2023-04-02T17:41:54.517Z,17.90
2023-04-02T17:44:59.260Z,24.48
2023-04-02T17:47:36.353Z,23.55
2023-04-02T17:50:12.678Z,20.40
2023-04-02T17:52:41.857Z,17.85
2023-04-02T17:55:27.925Z,18.38
2023-04-02T17:58:08.254Z,15.55
2023-04-02T18:01:04.456Z,15.20
2023-04-02T18:04:05.058Z,14.07
2023-04-02T18:06:57.755Z,16.83
2023-04-02T18:09:35.003Z,14.15
2023-04-02T18:12:39.684Z,15.18
2023-04-02T18:15:19.777Z,18.33
2023-04-02T18:17:53.029Z,14.88
2023-04-02T18:20:24.906Z,20.00
2023-04-02T18:23:15.523Z,15.27
2023-04-02T18:25:52.027Z,17.73
2023-04-02T18:28:33.145Z,15.00
2023-04-02T18:31:04.265Z,14.98
2023-04-02T18:33:59.903Z,15.13
2023-04-02T18:36:53.355Z,16.90
2023-04-02T18:39:36.967Z,35.25
2023-04-02T18:42:05.588Z,44.13
2023-04-02T18:44:46.081Z,33.42
2023-04-02T18:47:46.014Z,27.95
2023-04-02T18:50:20.528Z,23.42
2023-04-02T18:52:49.876Z,21.40
2023-04-02T18:55:23.704Z,19.60
2023-04-02T18:57:58.062Z,20.35
2023-04-02T19:00:36.931Z,16.90
2023-04-02T19:03:29.072Z,15.68
2023-04-02T19:06:06.590Z,20.77
2023-04-02T19:08:38.782Z,19.10
2023-04-02T19:11:30.189Z,20.88
2023-04-02T19:14:01.248Z,19.63
2023-04-02T19:16:46.092Z,26.63
2023-04-02T19:19:20.630Z,23.08
2023-04-02T19:21:51.880Z,23.92
2023-04-02T19:24:20.624Z,24.00
2023-04-02T19:26:59.437Z,20.23
2023-04-02T19:29:55.310Z,20.90
2023-04-02T19:32:49.070Z,20.52
2023-04-02T19:35:27.645Z,22.00
2023-04-02T19:38:19.017Z,18.52
2023-04-02T19:40:56.345Z,20.02
2023-04-02T19:43:25.378Z,19.80
2023-04-02T19:45:54.848Z,19.27
2023-04-02T19:48:26.550Z,19.05
2023-04-02T19:50:55.238Z,16.77
2023-04-02T19:53:23.170Z,18.88
2023-04-02T19:55:51.790Z,16.17
2023-04-02T19:58:32.416Z,17.77
2023-04-02T20:01:02.244Z,21.08
2023-04-02T20:03:30.999Z,18.92
2023-04-02T20:06:00.281Z,20.10
2023-04-02T20:08:34.661Z,18.85
2023-04-02T20:11:10.882Z,12.20
2023-04-02T20:13:39.129Z,18.95
2023-04-02T20:16:09.603Z,15.23
2023-04-02T20:18:38.337Z,14.93
2023-04-02T20:21:10.450Z,14.13
2023-04-02T20:23:39.436Z,13.80
2023-04-02T20:26:08.728Z,14.93
2023-04-02T20:28:36.659Z,14.07
2023-04-02T20:31:16.407Z,13.52
2023-04-02T20:33:44.862Z,12.15
2023-04-02T20:36:15.326Z,10.25
2023-04-02T20:38:43.944Z,11.50
2023-04-02T20:41:12.698Z,12.75
2023-04-02T20:43:42.878Z,8.68
2023-04-02T20:46:13.105Z,7.43
2023-04-02T20:48:41.459Z,8.23
2023-04-02T20:51:12.788Z,4.18
2023-04-02T20:53:41.333Z,6.32
2023-04-02T20:56:16.123Z,13.57
2023-04-02T20:58:44.742Z,4.65
2023-04-02T21:01:27.135Z,5.45
2023-04-02T21:04:00.214Z,5.22
2023-04-02T21:06:31.461Z,10.00
2023-04-02T21:09:00.065Z,5.13
2023-04-02T21:11:28.296Z,4.95
2023-04-02T21:13:56.656Z,5.80
2023-04-02T21:16:31.430Z,9.95
2023-04-02T21:19:05.836Z,7.40
2023-04-02T21:21:35.884Z,6.38
2023-04-02T21:24:06.436Z,6.45
2023-04-02T21:26:39.262Z,5.63
2023-04-02T21:29:07.630Z,5.65
2023-04-02T21:31:37.806Z,6.03
2023-04-02T21:34:07.336Z,5.45
2023-04-02T21:36:38.843Z,5.68
2023-04-02T21:39:09.840Z,4.57
2023-04-02T21:41:40.755Z,4.55
2023-04-02T21:44:10.458Z,5.13
2023-04-02T21:46:40.125Z,5.10
2023-04-02T21:49:09.882Z,4.05
2023-04-02T21:51:39.533Z,3.10
2023-04-02T21:54:08.320Z,3.75
2023-04-02T21:56:39.033Z,3.28
2023-04-02T21:59:08.628Z,3.63
2023-04-02T22:01:40.145Z,3.92
2023-04-02T22:04:10.139Z,2.75
2023-04-02T22:06:40.884Z,3.45
2023-04-02T22:09:15.716Z,2.53
2023-04-02T22:11:46.079Z,3.05
2023-04-02T22:14:15.054Z,5.40
2023-04-02T22:16:44.046Z,2.13
2023-04-02T22:19:14.835Z,3.42
2023-04-02T22:21:43.704Z,3.60
2023-04-02T22:24:15.139Z,3.47
2023-04-02T22:26:44.806Z,3.83
2023-04-02T22:29:12.653Z,3.85
2023-04-02T22:31:41.299Z,5.88
2023-04-02T22:34:09.121Z,3.80
2023-04-02T22:36:37.319Z,3.35
2023-04-02T22:39:07.397Z,5.20
2023-04-02T22:41:36.182Z,3.38
2023-04-02T22:44:04.536Z,4.55
2023-04-02T22:46:32.821Z,3.30
2023-04-02T22:49:01.405Z,4.70
2023-04-02T22:51:30.094Z,4.82
2023-04-02T22:53:58.472Z,3.95
2023-04-02T22:56:32.403Z,2.95
2023-04-02T22:59:00.969Z,5.20
2023-04-02T23:01:33.515Z,2.65
2023-04-02T23:04:01.566Z,4.53
2023-04-02T23:06:29.860Z,5.90
2023-04-02T23:08:57.633Z,7.28
2023-04-02T23:11:27.749Z,4.50
2023-04-02T23:13:58.007Z,4.82
2023-04-02T23:16:28.083Z,5.03
2023-04-02T23:18:56.817Z,3.88
2023-04-02T23:21:26.386Z,4.45
2023-04-02T23:23:55.814Z,5.78
2023-04-02T23:26:31.622Z,3.47
2023-04-02T23:29:00.661Z,5.43
2023-04-02T23:31:29.130Z,4.30
2023-04-02T23:33:56.872Z,5.93
2023-04-02T23:36:30.638Z,5.75
2023-04-02T23:39:01.597Z,4.32
2023-04-02T23:41:30.116Z,6.20
2023-04-02T23:43:58.709Z,7.50
2023-04-02T23:46:27.285Z,3.85
2023-04-02T23:48:55.685Z,5.10
2023-04-02T23:51:24.398Z,6.00
2023-04-02T23:53:52.881Z,7.32
2023-04-02T23:56:22.500Z,5.63
2023-04-02T23:58:51.150Z,3.15
